Time;durP1;ratioP1;P1;durP2;ratioP2;P2;SDS_P1;SDS_P2;PMS_P1;PMS_P2;Temp;Humidity;BMP_temperature;BMP_pressure;BME280_temperature;BME280_humidity;BME280_pressure;Samples;Min_cycle;Max_cycle;Signal;HPM_P1;HPM_P2
2022/07/12 00:00:50;;;;;;;4.90;3.87;;;18.90;94.70;;;;;;7384736;19;20450;-49
2022/07/12 00:03:22;;;;;;;7.77;4.33;;;18.90;94.80;;;;;;7383159;19;20962;-48
2022/07/12 00:05:52;;;;;;;5.40;3.40;;;18.90;94.90;;;;;;7386843;19;20944;-49
2022/07/12 00:08:21;;;;;;;5.20;3.70;;;18.90;95.00;;;;;;7383075;19;20371;-49
2022/07/12 00:10:51;;;;;;;4.47;4.07;;;18.90;95.00;;;;;;7379563;19;20460;-50
2022/07/12 00:13:21;;;;;;;4.00;3.60;;;18.90;95.00;;;;;;7380479;19;20440;-49
2022/07/12 00:15:50;;;;;;;6.10;3.87;;;18.90;95.00;;;;;;7376494;19;20413;-49
2022/07/12 00:18:22;;;;;;;6.00;3.87;;;18.80;95.30;;;;;;7379047;19;20412;-50
2022/07/12 00:20:52;;;;;;;4.80;3.70;;;18.70;95.90;;;;;;7380908;19;20933;-49
2022/07/12 00:23:24;;;;;;;4.00;3.60;;;18.60;96.50;;;;;;7386510;19;20383;-49
2022/07/12 00:25:53;;;;;;;4.50;3.77;;;18.60;96.70;;;;;;7376380;19;21538;-49
2022/07/12 00:28:23;;;;;;;3.90;3.50;;;18.60;96.80;;;;;;7377654;19;20792;-49
2022/07/12 00:30:52;;;;;;;5.00;4.00;;;18.50;97.00;;;;;;7379760;19;20747;-45
2022/07/12 00:33:24;;;;;;;5.77;3.53;;;18.40;97.60;;;;;;7382155;19;20387;-45
2022/07/12 00:35:54;;;;;;;5.70;3.87;;;18.30;98.30;;;;;;7373310;19;21892;-45
2022/07/12 00:38:24;;;;;;;3.80;3.50;;;18.40;98.10;;;;;;7384844;19;20380;-45
2022/07/12 00:40:55;;;;;;;5.93;4.07;;;18.40;97.80;;;;;;7378741;19;20406;-45
2022/07/12 00:43:25;;;;;;;3.97;3.40;;;18.50;97.80;;;;;;7380129;19;20789;-45
2022/07/12 00:45:54;;;;;;;4.47;3.10;;;18.40;98.00;;;;;;7375257;19;20412;-45
2022/07/12 00:48:27;;;;;;;4.17;3.50;;;18.30;98.30;;;;;;7379115;19;20472;-45
2022/07/12 00:50:56;;;;;;;7.70;3.20;;;18.30;98.50;;;;;;7376111;19;20405;-45
2022/07/12 00:53:26;;;;;;;3.50;3.20;;;18.20;98.80;;;;;;7386339;19;20392;-45
2022/07/12 00:55:59;;;;;;;3.20;2.73;;;18.10;99.30;;;;;;7377906;19;20421;-45
2022/07/12 00:58:31;;;;;;;3.60;2.90;;;18.20;99.30;;;;;;7380309;19;20375;-45
2022/07/12 01:01:01;;;;;;;4.43;3.10;;;18.10;99.70;;;;;;7374927;19;20424;-49
2022/07/12 01:03:33;;;;;;;3.13;2.83;;;18.10;99.60;;;;;;7379850;19;20409;-49
2022/07/12 01:06:03;;;;;;;2.90;2.60;;;18.20;99.30;;;;;;7375905;19;20380;-50
2022/07/12 01:08:34;;;;;;;4.10;3.10;;;18.10;99.70;;;;;;7380796;19;21145;-49
2022/07/12 01:11:06;;;;;;;2.70;2.50;;;18.20;99.60;;;;;;7379026;19;20797;-49
2022/07/12 01:13:37;;;;;;;3.47;2.93;;;18.20;99.50;;;;;;7378879;19;20364;-49
2022/07/12 01:16:08;;;;;;;4.73;4.03;;;18.30;99.20;;;;;;7373204;19;20408;-49
2022/07/12 01:18:44;;;;;;;4.03;3.30;;;18.30;99.40;;;;;;7380832;19;20399;-49
2022/07/12 01:21:20;;;;;;;2.97;2.73;;;18.30;99.10;;;;;;7383052;19;20383;-49
2022/07/12 01:23:53;;;;;;;2.83;2.43;;;18.40;99.20;;;;;;7377879;19;20371;-49
2022/07/12 01:26:23;;;;;;;2.93;2.37;;;18.40;98.90;;;;;;7371954;19;20447;-49
2022/07/12 01:28:53;;;;;;;5.50;2.90;;;18.50;98.80;;;;;;7380644;19;20932;-49
2022/07/12 01:31:25;;;;;;;2.53;2.33;;;18.40;99.10;;;;;;7373335;19;22103;-45
2022/07/12 01:33:55;;;;;;;2.63;2.43;;;18.40;99.40;;;;;;7382850;19;21004;-45
2022/07/12 01:36:24;;;;;;;2.60;2.40;;;18.20;99.90;;;;;;7376922;19;20814;-46
2022/07/12 01:38:57;;;;;;;2.83;2.50;;;18.20;99.90;;;;;;7380030;19;20430;-45
2022/07/12 01:41:30;;;;;;;2.20;2.10;;;18.10;99.90;;;;;;7374690;19;20375;-45
2022/07/12 01:44:00;;;;;;;2.60;2.30;;;18.20;99.90;;;;;;7377875;19;20476;-45
2022/07/12 01:46:29;;;;;;;2.53;2.33;;;18.30;99.90;;;;;;7379777;19;20392;-45
2022/07/12 01:49:02;;;;;;;3.50;2.43;;;18.30;99.90;;;;;;7374191;19;20368;-45
2022/07/12 01:51:34;;;;;;;3.40;2.70;;;18.20;99.90;;;;;;7379983;19;20403;-45
2022/07/12 01:54:06;;;;;;;4.43;2.30;;;18.10;99.90;;;;;;7376645;19;20397;-45
2022/07/12 01:56:38;;;;;;;3.23;2.30;;;18.00;99.90;;;;;;7378246;19;20452;-45
2022/07/12 01:59:08;;;;;;;2.10;1.90;;;18.00;99.90;;;;;;7380577;19;20383;-45
2022/07/12 02:01:38;;;;;;;1.70;1.60;;;17.90;99.90;;;;;;7372671;19;20376;-49
2022/07/12 02:04:08;;;;;;;2.23;1.90;;;17.80;99.90;;;;;;7381297;19;20459;-50
2022/07/12 02:06:38;;;;;;;2.53;2.20;;;17.80;99.90;;;;;;7380403;19;20372;-49
2022/07/12 02:12:48;;;;;;;2.60;2.23;;;17.80;99.90;;;;;;7364325;19;20941;-49
2022/07/12 02:15:17;;;;;;;1.83;1.70;;;17.90;99.90;;;;;;7371700;19;20454;-49
2022/07/12 02:17:49;;;;;;;2.33;2.13;;;17.80;99.90;;;;;;7377801;19;20448;-49
2022/07/12 02:20:53;;;;;;;2.07;1.60;;;17.80;99.90;;;;;;7378078;19;20384;-48
2022/07/12 02:23:25;;;;;;;2.30;2.10;;;17.90;99.90;;;;;;7374469;19;20383;-49
2022/07/12 02:25:55;;;;;;;2.00;1.87;;;17.70;99.90;;;;;;7378033;19;20387;-49
2022/07/12 02:28:27;;;;;;;1.77;1.67;;;17.70;99.90;;;;;;7367333;19;20452;-50
2022/07/12 02:30:56;;;;;;;3.17;2.07;;;17.60;99.90;;;;;;7371246;19;20372;-49
2022/07/12 02:33:26;;;;;;;1.70;1.60;;;17.70;99.90;;;;;;7374603;19;20532;-49
2022/07/12 02:35:57;;;;;;;2.10;1.90;;;17.80;99.90;;;;;;7386599;19;20912;-49
2022/07/12 02:38:27;;;;;;;2.10;1.70;;;17.90;99.90;;;;;;7383329;19;20371;-49
2022/07/12 02:40:59;;;;;;;1.80;1.47;;;17.90;99.90;;;;;;7383254;19;20382;-49
2022/07/12 02:43:32;;;;;;;2.80;1.90;;;17.70;99.90;;;;;;7387090;19;20376;-48
2022/07/12 02:46:07;;;;;;;5.47;4.10;;;17.60;99.90;;;;;;7379716;19;20371;-49
2022/07/12 02:48:37;;;;;;;2.17;1.97;;;17.50;99.90;;;;;;7382797;19;20415;-50
2022/07/12 02:51:07;;;;;;;2.43;1.90;;;17.60;99.90;;;;;;7379465;19;20376;-49
2022/07/12 02:53:40;;;;;;;1.87;1.70;;;17.60;99.90;;;;;;7382623;19;20922;-48
2022/07/12 02:56:10;;;;;;;2.73;1.70;;;17.40;99.90;;;;;;7386955;19;20402;-49
2022/07/12 02:58:42;;;;;;;1.40;1.30;;;17.30;99.90;;;;;;7377753;19;20376;-50
2022/07/12 03:01:13;;;;;;;1.80;1.70;;;17.20;99.90;;;;;;7372726;19;20628;-46
2022/07/12 03:03:42;;;;;;;2.10;1.67;;;17.30;99.90;;;;;;7382100;19;20890;-45
2022/07/12 03:06:12;;;;;;;2.70;1.70;;;17.30;99.90;;;;;;7386644;19;20373;-45
2022/07/12 03:08:44;;;;;;;3.77;1.90;;;17.30;99.90;;;;;;7376037;19;20413;-45
2022/07/12 03:11:14;;;;;;;2.63;1.77;;;17.30;99.90;;;;;;7385785;19;20380;-45
2022/07/12 03:13:46;;;;;;;2.00;1.30;;;17.20;99.90;;;;;;7385934;19;20906;-46
2022/07/12 03:16:16;;;;;;;2.90;1.80;;;17.20;99.90;;;;;;7385924;19;20376;-45
2022/07/12 03:18:45;;;;;;;1.60;1.50;;;17.20;99.90;;;;;;7389200;19;20455;-45
2022/07/12 03:21:16;;;;;;;1.57;1.30;;;17.20;99.90;;;;;;7381143;19;20387;-45
2022/07/12 03:23:45;;;;;;;1.73;1.60;;;17.10;99.90;;;;;;7383327;19;20404;-45
2022/07/12 03:26:15;;;;;;;2.13;2.00;;;17.30;99.90;;;;;;7374880;19;20952;-45
2022/07/12 03:28:47;;;;;;;2.03;1.53;;;17.40;99.90;;;;;;7385399;19;20857;-45
2022/07/12 03:31:17;;;;;;;1.53;1.43;;;17.20;99.90;;;;;;7381115;19;20388;-47
2022/07/12 03:33:46;;;;;;;2.07;1.70;;;17.00;99.90;;;;;;7384594;19;20376;-45
2022/07/12 03:36:15;;;;;;;2.00;1.90;;;17.10;99.90;;;;;;7385565;19;21147;-45
2022/07/12 03:38:45;;;;;;;2.20;1.90;;;17.20;99.90;;;;;;7375688;19;20639;-45
2022/07/12 03:41:14;;;;;;;1.70;1.30;;;17.30;99.90;;;;;;7383585;19;20376;-45
2022/07/12 03:43:48;;;;;;;2.07;1.83;;;17.40;99.90;;;;;;7381186;19;20427;-44
2022/07/12 03:46:18;;;;;;;1.90;1.70;;;17.40;99.90;;;;;;7384955;19;21025;-45
2022/07/12 03:48:47;;;;;;;2.53;1.90;;;17.40;99.90;;;;;;7384642;19;20760;-45
2022/07/12 03:51:17;;;;;;;1.70;1.60;;;17.40;99.90;;;;;;7384970;19;20378;-45
2022/07/12 03:53:46;;;;;;;2.50;1.70;;;17.40;99.90;;;;;;7383780;19;20456;-45
2022/07/12 03:57:13;;;;;;;2.40;1.77;;;17.40;99.90;;;;;;7386371;19;20406;-45
2022/07/12 03:59:08;;;;;;;2.30;2.10;;;17.30;99.90;;;;;;7386546;19;20395;-45
2022/07/12 04:01:38;;;;;;;2.43;2.17;;;17.30;99.90;;;;;;7382732;19;20376;-45
2022/07/12 04:04:07;;;;;;;2.67;2.30;;;17.20;99.90;;;;;;7388222;19;20898;-45
2022/07/12 04:06:38;;;;;;;2.50;1.80;;;17.20;99.90;;;;;;7376666;19;20384;-45
2022/07/12 04:09:07;;;;;;;2.00;1.80;;;17.30;99.90;;;;;;7378211;19;20372;-45
2022/07/12 04:11:37;;;;;;;3.60;2.20;;;17.20;99.90;;;;;;7383772;19;20376;-45
2022/07/12 04:14:09;;;;;;;2.50;2.30;;;17.20;99.90;;;;;;7373681;19;20365;-44
2022/07/12 04:16:39;;;;;;;4.20;2.70;;;17.10;99.90;;;;;;7378571;19;20763;-47
2022/07/12 04:19:11;;;;;;;2.40;2.17;;;17.10;99.90;;;;;;7386120;19;20379;-44
2022/07/12 04:21:41;;;;;;;3.03;2.77;;;17.10;99.90;;;;;;7379572;19;21080;-45
2022/07/12 04:24:10;;;;;;;4.03;2.70;;;17.20;99.90;;;;;;7381174;19;20384;-45
2022/07/12 04:26:40;;;;;;;3.90;3.30;;;17.20;99.90;;;;;;7382396;19;20550;-45
2022/07/12 04:29:15;;;;;;;3.57;3.20;;;17.20;99.90;;;;;;7376596;19;20383;-45
2022/07/12 04:31:47;;;;;;;3.67;3.30;;;17.00;99.90;;;;;;7361208;19;20391;-45
2022/07/12 04:34:17;;;;;;;3.80;3.30;;;17.10;99.90;;;;;;7379346;19;20430;-44
2022/07/12 04:36:47;;;;;;;3.00;2.70;;;17.20;99.90;;;;;;7366312;19;20412;-45
2022/07/12 04:39:17;;;;;;;3.87;2.93;;;17.40;99.90;;;;;;7383361;19;20905;-45
2022/07/12 04:41:46;;;;;;;4.23;3.77;;;17.50;99.90;;;;;;7373071;19;20394;-49
2022/07/12 04:44:18;;;;;;;4.80;3.77;;;17.70;99.90;;;;;;7384214;19;20369;-50
2022/07/12 04:46:48;;;;;;;5.50;3.47;;;17.70;99.90;;;;;;7379530;19;20376;-48
2022/07/12 04:49:17;;;;;;;4.50;3.17;;;17.70;99.90;;;;;;7380678;19;20399;-48
2022/07/12 04:51:47;;;;;;;4.57;3.77;;;17.70;99.90;;;;;;7374779;19;20718;-50
2022/07/12 04:54:16;;;;;;;4.33;3.63;;;17.70;99.90;;;;;;7381167;19;20504;-49
2022/07/12 04:56:48;;;;;;;5.03;4.50;;;17.60;99.90;;;;;;7378818;19;20384;-49
2022/07/12 04:59:20;;;;;;;5.13;3.77;;;17.50;99.90;;;;;;7377471;19;20383;-49
2022/07/12 05:01:49;;;;;;;5.27;4.00;;;17.70;99.90;;;;;;7370401;19;20361;-49
2022/07/12 05:04:19;;;;;;;4.77;4.20;;;17.80;99.90;;;;;;7380521;19;20443;-50
2022/07/12 05:06:48;;;;;;;5.70;4.70;;;17.80;99.90;;;;;;7380624;19;20425;-51
2022/07/12 05:09:21;;;;;;;5.77;4.07;;;17.90;99.90;;;;;;7378518;19;20443;-50
2022/07/12 05:11:50;;;;;;;6.03;4.30;;;18.00;99.90;;;;;;7382372;19;20415;-51
2022/07/12 05:14:22;;;;;;;7.27;5.10;;;17.90;99.90;;;;;;7377269;19;20844;-52
2022/07/12 05:16:52;;;;;;;6.90;4.37;;;17.90;99.90;;;;;;7372630;19;20394;-52
2022/07/12 05:19:21;;;;;;;5.97;4.03;;;18.00;99.90;;;;;;7370503;19;20388;-49
2022/07/12 05:21:53;;;;;;;4.70;4.23;;;18.20;99.90;;;;;;7370577;19;20912;-51
2022/07/12 05:24:23;;;;;;;4.60;4.07;;;18.30;99.90;;;;;;7374473;19;20433;-49
2022/07/12 05:26:52;;;;;;;5.23;4.43;;;18.50;99.90;;;;;;7386153;19;20372;-49
2022/07/12 05:29:24;;;;;;;7.37;5.03;;;18.60;99.90;;;;;;7383680;19;20371;-49
2022/07/12 05:31:57;;;;;;;6.20;4.73;;;18.80;99.90;;;;;;7381624;19;20388;-49
2022/07/12 05:34:27;;;;;;;4.87;4.37;;;18.90;99.90;;;;;;7375605;19;20463;-49
2022/07/12 05:36:56;;;;;;;5.97;4.93;;;18.90;99.90;;;;;;7379208;19;20373;-50
2022/07/12 05:39:26;;;;;;;6.10;4.83;;;18.90;99.90;;;;;;7376700;19;20753;-50
2022/07/12 05:41:58;;;;;;;5.87;4.67;;;18.70;99.90;;;;;;7379605;19;20379;-49
2022/07/12 05:44:30;;;;;;;5.60;4.90;;;18.60;99.90;;;;;;7372102;19;20373;-50
2022/07/12 05:46:59;;;;;;;5.57;4.77;;;18.50;99.90;;;;;;7378483;19;20852;-50
2022/07/12 05:49:28;;;;;;;6.30;4.33;;;18.40;99.90;;;;;;7381984;19;20821;-51
2022/07/12 05:54:40;;;;;;;8.37;4.53;;;18.90;99.90;;;;;;7386211;19;20391;-50
2022/07/12 05:57:10;;;;;;;8.00;4.67;;;19.10;99.90;;;;;;7384597;19;20371;-51
2022/07/12 05:59:43;;;;;;;7.00;4.63;;;19.20;99.90;;;;;;7385250;19;20447;-50
2022/07/12 06:02:12;;;;;;;8.53;4.60;;;19.30;99.70;;;;;;7382479;19;20388;-50
2022/07/12 06:04:44;;;;;;;7.60;4.70;;;19.50;98.80;;;;;;7381536;19;20368;-51
2022/07/12 06:07:13;;;;;;;5.77;4.50;;;19.50;98.50;;;;;;7383901;19;20395;-50
2022/07/12 06:09:42;;;;;;;4.97;3.60;;;19.60;97.50;;;;;;7387903;19;20715;-46
2022/07/12 06:12:12;;;;;;;5.60;4.17;;;19.60;96.10;;;;;;7386830;19;20412;-46
2022/07/12 06:14:44;;;;;;;7.20;4.27;;;19.70;96.10;;;;;;7391718;19;20418;-46
2022/07/12 06:17:14;;;;;;;3.47;2.60;;;19.90;95.00;;;;;;7390580;19;20376;-46
2022/07/12 06:19:43;;;;;;;3.87;3.23;;;19.60;93.20;;;;;;7392505;19;20455;-46
2022/07/12 06:22:13;;;;;;;5.60;3.27;;;19.60;93.90;;;;;;7387178;19;20382;-46
2022/07/12 06:24:42;;;;;;;4.93;2.80;;;20.00;93.50;;;;;;7391924;19;20443;-46
2022/07/12 06:27:12;;;;;;;3.60;2.60;;;20.30;92.10;;;;;;7391512;19;20406;-46
2022/07/12 06:29:47;;;;;;;4.80;3.10;;;20.70;91.10;;;;;;7390221;19;20773;-46
2022/07/12 06:32:17;;;;;;;5.90;3.30;;;20.90;89.60;;;;;;7383584;19;20379;-45
2022/07/12 06:34:46;;;;;;;3.43;2.70;;;21.10;87.30;;;;;;7390942;19;20384;-46
2022/07/12 06:37:16;;;;;;;6.63;3.27;;;21.30;84.50;;;;;;7389308;19;20755;-46
2022/07/12 06:39:47;;;;;;;5.90;2.57;;;21.30;82.70;;;;;;7387243;19;20924;-46
2022/07/12 06:42:18;;;;;;;4.73;2.70;;;21.30;83.70;;;;;;7389146;19;20421;-46
2022/07/12 06:44:59;;;;;;;4.50;2.97;;;21.40;81.00;;;;;;7390950;19;20380;-46
2022/07/12 06:47:28;;;;;;;3.20;2.57;;;21.10;81.00;;;;;;7386411;19;21148;-46
2022/07/12 06:49:58;;;;;;;4.00;2.43;;;21.30;82.10;;;;;;7388625;19;20400;-46
2022/07/12 06:52:27;;;;;;;6.10;2.40;;;21.50;81.30;;;;;;7387047;19;20373;-46
2022/07/12 06:54:57;;;;;;;3.87;2.47;;;21.80;79.80;;;;;;7390405;19;20361;-46
2022/07/12 06:57:27;;;;;;;4.50;2.67;;;22.10;78.00;;;;;;7389383;19;21170;-46
2022/07/12 06:59:59;;;;;;;4.33;2.50;;;22.00;76.60;;;;;;7390534;19;20452;-46
2022/07/12 07:02:28;;;;;;;2.83;2.33;;;22.10;76.60;;;;;;7385205;19;20420;-46
2022/07/12 07:05:00;;;;;;;3.20;1.83;;;22.10;75.00;;;;;;7386875;19;20423;-46
2022/07/12 07:07:30;;;;;;;3.93;2.33;;;22.20;74.50;;;;;;7388723;19;20380;-46
2022/07/12 07:09:59;;;;;;;2.77;1.97;;;22.40;73.90;;;;;;7391078;19;20447;-46
2022/07/12 07:12:28;;;;;;;2.77;2.13;;;22.50;72.30;;;;;;7386103;19;20421;-46
2022/07/12 07:15:03;;;;;;;5.50;1.93;;;22.50;71.90;;;;;;7387772;19;20917;-46
2022/07/12 07:17:35;;;;;;;4.17;2.20;;;22.60;71.70;;;;;;7383936;19;20371;-46
2022/07/12 07:20:05;;;;;;;3.50;2.00;;;22.80;70.20;;;;;;7387525;19;20389;-46
2022/07/12 07:22:34;;;;;;;4.60;1.90;;;22.90;69.40;;;;;;7390683;19;20368;-46
2022/07/12 07:25:04;;;;;;;2.67;1.63;;;22.90;66.70;;;;;;7388913;19;20388;-46
2022/07/12 07:27:35;;;;;;;3.33;1.70;;;22.80;66.00;;;;;;7389104;19;20971;-46
2022/07/12 07:32:52;;;;;;;2.17;1.70;;;23.00;67.20;;;;;;7378015;19;20380;-46
2022/07/12 07:35:22;;;;;;;2.23;1.80;;;23.20;66.40;;;;;;7385718;19;20929;-46
2022/07/12 07:37:51;;;;;;;2.40;1.60;;;23.40;63.60;;;;;;7387390;19;20387;-46
2022/07/12 07:40:20;;;;;;;2.23;1.20;;;23.50;64.10;;;;;;7384664;19;20387;-46
2022/07/12 07:42:50;;;;;;;1.53;1.20;;;23.40;61.30;;;;;;7385529;19;20766;-46
2022/07/12 07:45:24;;;;;;;1.17;1.07;;;23.40;60.60;;;;;;7380158;19;20496;-46
2022/07/12 07:47:54;;;;;;;1.17;0.90;;;23.40;60.80;;;;;;7380154;19;20440;-46
2022/07/12 07:50:23;;;;;;;1.00;0.80;;;23.50;61.40;;;;;;7386230;19;20447;-51
2022/07/12 07:52:53;;;;;;;1.57;1.13;;;23.70;60.50;;;;;;7382681;19;20376;-51
2022/07/12 07:55:22;;;;;;;3.30;1.47;;;23.90;60.20;;;;;;7388437;19;21020;-51
2022/07/12 07:57:52;;;;;;;1.90;1.00;;;24.00;59.10;;;;;;7386684;19;20942;-51
2022/07/12 08:00:24;;;;;;;4.60;1.33;;;24.00;59.10;;;;;;7385778;19;20473;-51
2022/07/12 08:02:57;;;;;;;2.40;1.13;;;24.20;59.10;;;;;;7386512;19;20375;-52
2022/07/12 08:05:29;;;;;;;1.53;1.00;;;24.30;59.00;;;;;;7385756;19;20414;-51
2022/07/12 08:07:58;;;;;;;2.00;1.40;;;24.50;58.20;;;;;;7387025;19;20413;-53
2022/07/12 08:10:28;;;;;;;1.50;0.97;;;24.70;56.90;;;;;;7387004;19;20453;-52
2022/07/12 08:12:57;;;;;;;1.70;0.83;;;24.90;57.50;;;;;;7381589;19;20902;-51
2022/07/12 08:15:30;;;;;;;2.40;1.13;;;25.00;55.80;;;;;;7384441;19;20917;-51
2022/07/12 08:17:59;;;;;;;1.13;0.90;;;24.90;55.40;;;;;;7384266;19;20398;-51
2022/07/12 08:20:29;;;;;;;0.87;0.70;;;24.90;55.80;;;;;;7387410;19;20388;-51
2022/07/12 08:22:58;;;;;;;1.33;0.80;;;25.10;55.70;;;;;;7387685;19;20495;-52
2022/07/12 08:25:28;;;;;;;2.30;0.83;;;25.30;55.40;;;;;;7387075;19;20384;-52
2022/07/12 08:27:57;;;;;;;0.93;0.70;;;25.30;55.00;;;;;;7386866;19;20376;-51
2022/07/12 08:30:29;;;;;;;10.83;1.40;;;25.50;54.70;;;;;;7382335;19;20368;-53
2022/07/12 08:32:59;;;;;;;14.90;10.80;;;25.60;54.20;;;;;;7381489;19;20427;-52
2022/07/12 08:35:29;;;;;;;1.47;1.07;;;25.60;53.70;;;;;;7383265;19;20416;-52
2022/07/12 08:37:58;;;;;;;1.70;1.30;;;25.60;52.20;;;;;;7386858;19;20380;-52
2022/07/12 08:40:28;;;;;;;1.63;1.10;;;25.50;53.10;;;;;;7386029;19;20405;-52
2022/07/12 08:43:00;;;;;;;0.93;0.60;;;25.50;52.40;;;;;;7383173;19;20378;-53
2022/07/12 08:45:34;;;;;;;1.10;0.90;;;25.60;52.00;;;;;;7387407;19;20749;-52
2022/07/12 08:48:04;;;;;;;2.20;1.40;;;25.60;52.50;;;;;;7387762;19;20396;-51
2022/07/12 08:50:36;;;;;;;2.60;1.20;;;25.90;52.00;;;;;;7386400;19;20409;-52
2022/07/12 08:53:13;;;;;;;2.50;1.90;;;26.00;51.70;;;;;;7383219;19;20384;-52
2022/07/12 08:55:44;;;;;;;1.33;1.13;;;26.30;51.10;;;;;;7379786;19;20392;-52
2022/07/12 08:58:19;;;;;;;1.00;0.87;;;26.50;50.50;;;;;;7381607;19;20384;-52
2022/07/12 09:00:51;;;;;;;1.60;1.47;;;26.70;50.30;;;;;;7386340;19;20469;-53
2022/07/12 09:03:23;;;;;;;3.20;2.30;;;26.80;50.00;;;;;;7384903;19;20379;-53
2022/07/12 09:05:54;;;;;;;3.53;2.00;;;27.00;49.30;;;;;;7387152;19;20410;-52
2022/07/12 09:08:30;;;;;;;0.97;0.70;;;27.10;49.20;;;;;;7386011;19;20915;-52
2022/07/12 09:11:03;;;;;;;1.70;0.97;;;27.50;48.90;;;;;;7382513;19;20392;-52
2022/07/12 09:13:54;;;;;;;1.33;1.20;;;27.90;48.00;;;;;;7383461;19;20957;-53
2022/07/12 09:16:27;;;;;;;1.43;1.30;;;27.80;47.90;;;;;;7383713;19;20384;-53
2022/07/12 09:19:16;;;;;;;2.53;2.17;;;27.80;48.10;;;;;;7387079;19;20373;-52
2022/07/12 09:21:52;;;;;;;1.30;0.80;;;28.10;47.70;;;;;;7386250;19;20424;-51
2022/07/12 09:24:22;;;;;;;3.50;1.00;;;28.50;45.70;;;;;;7385283;19;20387;-52
2022/07/12 09:26:56;;;;;;;1.07;0.97;;;28.70;46.00;;;;;;7381267;19;20422;-53
2022/07/12 09:29:25;;;;;;;3.13;1.10;;;29.10;45.50;;;;;;7383102;19;20401;-48
2022/07/12 09:37:26;;;;;;;1.03;0.93;;;30.40;42.90;;;;;;7386036;19;20384;-48
2022/07/12 09:40:01;;;;;;;2.80;1.20;;;30.90;41.90;;;;;;7383478;19;20499;-48
2022/07/12 09:42:30;;;;;;;1.23;1.00;;;31.20;41.70;;;;;;7387724;19;21606;-48
2022/07/12 09:45:01;;;;;;;0.87;0.70;;;31.50;40.70;;;;;;7392353;19;20376;-48
2022/07/12 09:47:35;;;;;;;1.30;0.63;;;31.50;39.70;;;;;;7391138;19;20395;-48
2022/07/12 09:50:07;;;;;;;0.60;0.53;;;31.70;40.00;;;;;;7394046;19;20490;-48
2022/07/12 09:52:39;;;;;;;0.70;0.50;;;31.70;39.70;;;;;;7390669;19;20379;-48
2022/07/12 09:55:14;;;;;;;1.20;0.87;;;31.30;39.20;;;;;;7388585;19;20803;-48
2022/07/12 09:57:44;;;;;;;2.40;1.30;;;31.70;39.80;;;;;;7392950;19;20942;-48
2022/07/12 10:00:15;;;;;;;2.20;1.70;;;32.50;38.10;;;;;;7390251;19;20436;-53
2022/07/12 10:02:49;;;;;;;1.73;0.90;;;33.10;37.90;;;;;;7386483;19;20384;-53
2022/07/12 10:05:22;;;;;;;2.50;1.00;;;33.50;36.30;;;;;;7389402;19;20467;-52
2022/07/12 10:07:57;;;;;;;0.93;0.50;;;34.00;36.50;;;;;;7387346;19;20386;-53
2022/07/12 10:10:27;;;;;;;3.50;1.50;;;34.10;35.00;;;;;;7390246;19;20372;-53
2022/07/12 10:13:00;;;;;;;2.17;0.93;;;34.30;35.50;;;;;;7387887;19;20409;-52
2022/07/12 10:15:33;;;;;;;1.00;0.90;;;34.60;35.20;;;;;;7386431;19;20407;-52
2022/07/12 10:18:09;;;;;;;1.10;0.80;;;34.80;34.90;;;;;;7386087;19;20383;-52
2022/07/12 10:20:45;;;;;;;1.80;0.90;;;35.30;33.50;;;;;;7388324;19;20434;-52
2022/07/12 10:23:34;;;;;;;1.70;0.70;;;35.50;33.70;;;;;;7386361;19;20390;-52
2022/07/12 10:26:24;;;;;;;1.00;0.60;;;36.10;32.50;;;;;;7385339;19;20386;-52
2022/07/12 10:29:05;;;;;;;1.10;0.63;;;36.30;32.60;;;;;;7382454;19;20376;-53
2022/07/12 10:31:37;;;;;;;2.30;0.40;;;36.80;31.40;;;;;;7390932;19;20370;-52
2022/07/12 10:34:17;;;;;;;0.80;0.40;;;35.50;31.80;;;;;;7391104;19;20417;-52
2022/07/12 10:37:14;;;;;;;0.90;0.70;;;35.40;32.10;;;;;;7392528;19;20380;-52
2022/07/12 10:40:15;;;;;;;0.70;0.50;;;36.30;31.80;;;;;;7387914;19;20372;-53
2022/07/12 10:43:16;;;;;;;1.07;0.70;;;37.00;30.00;;;;;;7389672;19;20391;-52
2022/07/12 10:45:47;;;;;;;0.50;0.40;;;37.00;29.90;;;;;;7384715;19;20380;-53
2022/07/12 10:48:24;;;;;;;2.30;0.70;;;37.30;30.20;;;;;;7389418;19;20368;-52
2022/07/12 10:51:14;;;;;;;0.90;0.50;;;37.90;29.40;;;;;;7374309;19;20371;-52
2022/07/12 10:53:49;;;;;;;0.70;0.47;;;37.90;29.50;;;;;;7381818;19;20420;-52
2022/07/12 10:56:20;;;;;;;0.67;0.50;;;37.90;29.30;;;;;;7384280;19;20375;-52
2022/07/12 10:58:55;;;;;;;0.73;0.70;;;37.70;29.60;;;;;;7388248;19;20740;-53
2022/07/12 11:01:29;;;;;;;1.40;1.20;;;38.50;29.10;;;;;;7385236;19;20444;-52
2022/07/12 11:04:05;;;;;;;1.00;0.90;;;38.80;28.60;;;;;;7383310;19;20938;-54
2022/07/12 11:06:41;;;;;;;3.40;0.90;;;39.10;28.50;;;;;;7383114;19;20395;-53
2022/07/12 11:09:12;;;;;;;1.50;1.13;;;39.70;27.80;;;;;;7385715;19;20365;-53
2022/07/12 11:11:44;;;;;;;0.93;0.80;;;40.20;27.70;;;;;;7385003;19;20399;-53
2022/07/12 11:14:24;;;;;;;3.60;1.23;;;40.60;27.60;;;;;;7388199;19;20386;-53
2022/07/12 11:16:57;;;;;;;8.23;2.30;;;41.10;27.30;;;;;;7383862;19;20391;-52
2022/07/12 11:19:33;;;;;;;1.07;0.50;;;40.90;27.10;;;;;;7380443;19;20486;-52
2022/07/12 11:22:09;;;;;;;2.87;2.67;;;40.90;27.00;;;;;;7386159;19;20478;-53
2022/07/12 11:24:40;;;;;;;7.07;6.50;;;41.40;26.50;;;;;;7383606;19;20407;-53
2022/07/12 11:30:37;;;;;;;1.53;1.40;;;41.90;25.20;;;;;;7379797;19;20932;-53
2022/07/12 11:33:07;;;;;;;1.00;0.80;;;41.10;26.70;;;;;;7374705;19;25099;-52
2022/07/12 11:35:36;;;;;;;1.00;0.47;;;40.70;26.70;;;;;;7378614;19;20412;-52
2022/07/12 11:38:08;;;;;;;1.63;0.90;;;40.60;26.70;;;;;;7380938;19;20364;-53
2022/07/12 11:40:38;;;;;;;0.67;0.47;;;40.90;26.90;;;;;;7384379;19;20959;-53
2022/07/12 11:43:07;;;;;;;0.60;0.30;;;41.10;25.90;;;;;;7381595;19;20389;-52
2022/07/12 11:45:37;;;;;;;0.60;0.37;;;40.70;26.30;;;;;;7379946;19;20496;-53
2022/07/12 11:48:07;;;;;;;0.63;0.40;;;40.80;26.10;;;;;;7380994;19;20388;-52
2022/07/12 11:50:46;;;;;;;1.47;1.00;;;39.90;26.70;;;;;;7381775;19;20740;-53
2022/07/12 11:53:23;;;;;;;3.20;2.90;;;40.30;27.20;;;;;;7381690;19;20495;-53
2022/07/12 11:55:55;;;;;;;1.83;0.60;;;41.00;26.40;;;;;;7380165;19;20920;-52
2022/07/12 11:58:25;;;;;;;2.07;1.30;;;41.10;25.70;;;;;;7379169;19;20915;-53
2022/07/12 12:00:59;;;;;;;1.03;0.93;;;41.70;26.00;;;;;;7380114;19;20810;-53
2022/07/12 12:03:32;;;;;;;2.00;1.17;;;42.10;25.20;;;;;;7377146;19;20387;-53
2022/07/12 12:06:03;;;;;;;0.80;0.43;;;42.10;25.30;;;;;;7381415;19;20901;-53
2022/07/12 12:08:35;;;;;;;0.70;0.60;;;42.20;25.10;;;;;;7383240;19;20729;-53
2022/07/12 12:11:10;;;;;;;0.80;0.50;;;41.80;25.00;;;;;;7382146;19;20432;-53
2022/07/12 12:13:39;;;;;;;0.80;0.50;;;42.10;25.30;;;;;;7374699;19;20459;-53
2022/07/12 12:16:09;;;;;;;1.33;1.23;;;41.70;25.90;;;;;;7380362;19;20380;-53
2022/07/12 12:18:41;;;;;;;0.70;0.50;;;42.00;25.90;;;;;;7373921;19;21035;-53
2022/07/12 12:21:13;;;;;;;1.33;0.60;;;42.70;25.10;;;;;;7378912;19;20413;-53
2022/07/12 12:23:45;;;;;;;0.90;0.50;;;42.80;24.70;;;;;;7384489;19;20468;-52
2022/07/12 12:29:42;;;;;;;0.70;0.60;;;43.50;23.70;;;;;;7369333;19;20436;-53
2022/07/12 12:32:20;;;;;;;0.70;0.50;;;42.80;24.60;;;;;;7378457;19;20402;-53
2022/07/12 12:35:07;;;;;;;0.70;0.50;;;42.80;24.20;;;;;;7384036;19;20372;-53
2022/07/12 12:37:37;;;;;;;1.13;0.53;;;43.00;24.10;;;;;;7385373;19;20816;-53
2022/07/12 12:40:11;;;;;;;0.60;0.40;;;43.30;23.80;;;;;;7381610;19;20372;-53
2022/07/12 12:42:40;;;;;;;1.10;0.67;;;43.10;23.60;;;;;;7384598;19;20357;-53
2022/07/12 12:45:19;;;;;;;0.83;0.67;;;43.30;24.00;;;;;;7383533;19;20751;-52
2022/07/12 12:47:59;;;;;;;0.50;0.33;;;43.50;23.70;;;;;;7384590;19;20384;-53
2022/07/12 12:50:45;;;;;;;0.50;0.40;;;43.40;23.80;;;;;;7386260;19;20388;-53
2022/07/12 12:53:18;;;;;;;0.67;0.47;;;43.10;23.50;;;;;;7381166;19;20690;-53
2022/07/12 12:55:52;;;;;;;1.00;0.43;;;43.30;23.90;;;;;;7383696;19;20387;-53
2022/07/12 12:58:34;;;;;;;0.70;0.40;;;43.50;23.80;;;;;;7383453;19;20835;-52
2022/07/12 13:01:04;;;;;;;0.87;0.40;;;42.80;24.00;;;;;;7368470;19;20477;-53
2022/07/12 13:03:36;;;;;;;1.50;1.00;;;42.10;23.80;;;;;;7383367;19;20387;-53
2022/07/12 13:06:06;;;;;;;1.30;0.90;;;41.90;24.10;;;;;;7382761;19;20815;-53
2022/07/12 13:08:38;;;;;;;1.40;0.90;;;41.10;25.00;;;;;;7382515;19;20395;-53
2022/07/12 13:11:22;;;;;;;1.33;1.00;;;39.60;26.00;;;;;;7379593;19;20380;-52
2022/07/12 13:13:53;;;;;;;1.50;1.20;;;38.10;27.00;;;;;;7380262;19;20459;-52
2022/07/12 13:16:23;;;;;;;2.57;2.10;;;36.30;29.00;;;;;;7380694;19;20384;-52
2022/07/12 13:18:53;;;;;;;0.93;0.47;;;35.10;30.00;;;;;;7357015;19;20435;-52
2022/07/12 13:21:22;;;;;;;7.90;1.20;;;33.90;31.60;;;;;;7384314;19;20850;-52
2022/07/12 13:23:52;;;;;;;1.50;0.90;;;33.30;32.40;;;;;;7384116;19;20372;-52
2022/07/12 13:26:24;;;;;;;1.90;0.77;;;32.60;33.90;;;;;;7378532;19;21009;-52
2022/07/12 13:29:23;;;;;;;1.60;0.90;;;32.30;33.70;;;;;;7374714;19;20479;-52
2022/07/12 13:31:53;;;;;;;0.63;0.50;;;32.00;34.40;;;;;;7368655;19;20368;-51